Time;durP1;ratioP1;P1;durP2;ratioP2;P2;SDS_P1;SDS_P2;PMS_P1;PMS_P2;Temp;Humidity;BMP_temperature;BMP_pressure;BME280_temperature;BME280_humidity;BME280_pressure;Samples;Min_cycle;Max_cycle;Signal;HPM_P1;HPM_P2
2022/06/10 00:00:08;;;;;;;5.57;3.87;;;;;;;12.20;100.00;100637.72;5031028;28;20174;-63
2022/06/10 00:02:33;;;;;;;6.03;4.17;;;;;;;12.18;100.00;100642.13;5043257;28;20656;-63
2022/06/10 00:04:59;;;;;;;4.50;4.10;;;;;;;12.10;100.00;100639.94;5031173;28;20174;-62
2022/06/10 00:07:27;;;;;;;7.90;4.50;;;;;;;12.07;100.00;100642.69;5034146;28;20197;-63
2022/06/10 00:09:53;;;;;;;4.97;3.80;;;;;;;11.99;100.00;100639.69;5033257;28;20186;-61
2022/06/10 00:12:20;;;;;;;5.20;4.60;;;;;;;11.94;100.00;100639.88;5024999;28;20229;-60
2022/06/10 00:14:45;;;;;;;6.80;4.60;;;;;;;12.02;100.00;100639.50;5054038;28;20217;-59
2022/06/10 00:17:10;;;;;;;5.23;3.90;;;;;;;11.95;100.00;100644.94;5053997;28;20225;-61
2022/06/10 00:19:36;;;;;;;5.73;4.77;;;;;;;11.82;100.00;100646.50;5054287;28;20177;-60
2022/06/10 00:22:01;;;;;;;6.10;4.80;;;;;;;11.85;100.00;100651.50;5044176;28;20349;-61
2022/06/10 00:24:27;;;;;;;6.23;4.47;;;;;;;11.85;100.00;100643.75;5054303;28;20539;-61
2022/06/10 00:26:53;;;;;;;8.50;4.50;;;;;;;11.84;100.00;100643.84;5053919;28;20256;-60
2022/06/10 00:29:18;;;;;;;6.43;4.50;;;;;;;11.83;100.00;100640.41;5054482;28;20177;-61
2022/06/10 00:31:44;;;;;;;7.67;5.07;;;;;;;11.85;100.00;100645.53;5031613;28;20252;-60
2022/06/10 00:34:10;;;;;;;6.73;4.53;;;;;;;11.83;100.00;100645.56;5053977;28;20185;-61
2022/06/10 00:36:35;;;;;;;7.50;4.60;;;;;;;11.81;100.00;100647.41;5053681;28;20173;-61
2022/06/10 00:39:01;;;;;;;7.57;4.80;;;;;;;11.76;100.00;100650.22;5054412;28;20184;-62
2022/06/10 00:41:26;;;;;;;6.80;5.37;;;;;;;11.69;100.00;100655.75;5042743;28;20276;-69
2022/06/10 00:43:51;;;;;;;5.37;4.50;;;;;;;11.71;100.00;100653.94;5046201;28;20259;-61
2022/06/10 00:46:29;;;;;;;6.50;4.57;;;;;;;11.71;100.00;100659.94;5032061;28;20201;-62
2022/06/10 00:48:57;;;;;;;7.53;5.07;;;;;;;11.65;100.00;100657.66;5033949;28;20223;-61
2022/06/10 00:51:38;;;;;;;5.23;4.80;;;;;;;11.58;100.00;100651.97;5025387;28;20220;-61
2022/06/10 00:54:16;;;;;;;6.20;5.30;;;;;;;11.52;100.00;100652.28;5032727;28;20193;-62
2022/06/10 00:57:05;;;;;;;5.80;5.10;;;;;;;11.54;100.00;100650.47;5033467;28;20180;-61
2022/06/10 01:00:02;;;;;;;9.10;4.93;;;;;;;11.40;100.00;100647.72;5032944;28;20275;-61
2022/06/10 01:02:31;;;;;;;6.40;4.70;;;;;;;11.46;100.00;100645.69;4946335;28;20325;-61
2022/06/10 01:04:58;;;;;;;11.80;6.60;;;;;;;11.41;100.00;100645.09;4956295;28;20184;-61
2022/06/10 01:07:30;;;;;;;10.63;5.57;;;;;;;11.36;100.00;100644.50;4971881;28;20615;-61
2022/06/10 01:09:56;;;;;;;5.27;4.77;;;;;;;11.33;100.00;100646.38;4956461;28;20253;-62
2022/06/10 01:12:53;;;;;;;5.40;4.70;;;;;;;11.25;100.00;100645.00;4965115;28;20637;-60
2022/06/10 01:15:34;;;;;;;7.33;5.23;;;;;;;11.18;100.00;100648.78;4975528;28;20187;-60
2022/06/10 01:18:06;;;;;;;5.53;4.40;;;;;;;11.19;100.00;100650.47;4974583;28;20235;-60
2022/06/10 01:20:45;;;;;;;7.40;4.93;;;;;;;11.16;100.00;100652.34;4965517;28;20231;-61
2022/06/10 01:23:47;;;;;;;10.40;5.90;;;;;;;11.14;100.00;100653.25;4974030;28;20237;-60
2022/06/10 01:29:43;;;;;;;6.00;4.93;;;;;;;11.10;100.00;100643.16;4991652;28;20234;-62
2022/06/10 01:32:20;;;;;;;6.43;5.80;;;;;;;11.03;100.00;100650.34;4965348;28;20309;-61
2022/06/10 01:34:55;;;;;;;6.17;5.47;;;;;;;11.07;100.00;100651.03;4975322;28;20188;-60
2022/06/10 01:37:28;;;;;;;5.87;5.30;;;;;;;11.06;100.00;100649.38;4974390;28;20183;-62
2022/06/10 01:40:04;;;;;;;6.33;5.43;;;;;;;11.08;100.00;100656.13;5028318;28;20324;-61
2022/06/10 01:42:43;;;;;;;6.37;5.57;;;;;;;11.06;100.00;100650.19;5005074;28;20223;-60
2022/06/10 01:45:16;;;;;;;7.20;5.50;;;;;;;11.07;100.00;100648.47;5031800;28;20232;-60
2022/06/10 01:47:47;;;;;;;9.30;5.57;;;;;;;11.03;100.00;100649.53;5047536;28;20208;-61
2022/06/10 01:50:21;;;;;;;9.17;5.40;;;;;;;10.86;100.00;100655.47;5041098;28;20751;-61
2022/06/10 01:53:19;;;;;;;5.00;4.60;;;;;;;10.56;100.00;100653.41;5051315;28;20601;-59
2022/06/10 01:56:01;;;;;;;7.77;5.47;;;;;;;10.57;100.00;100655.09;5041407;28;20201;-62
2022/06/10 01:58:38;;;;;;;13.37;5.57;;;;;;;10.51;100.00;100652.78;5056893;28;20182;-60
2022/06/10 02:01:18;;;;;;;6.53;5.07;;;;;;;10.48;100.00;100653.75;5034902;28;20232;-62
2022/06/10 02:03:51;;;;;;;6.93;5.70;;;;;;;10.68;100.00;100652.84;5044417;28;20644;-61
2022/06/10 02:06:22;;;;;;;6.50;5.60;;;;;;;10.76;100.00;100650.72;5050458;28;20279;-63
2022/06/10 02:08:53;;;;;;;6.17;5.27;;;;;;;10.87;100.00;100650.25;5048854;28;20188;-60
2022/06/10 02:11:22;;;;;;;9.90;5.80;;;;;;;10.89;100.00;100645.00;5043753;28;20224;-59
2022/06/10 02:13:53;;;;;;;5.80;4.90;;;;;;;10.90;100.00;100646.69;5057208;28;20209;-59
2022/06/10 02:16:25;;;;;;;6.13;5.20;;;;;;;10.91;100.00;100658.66;5050349;28;20185;-60
2022/06/10 02:18:59;;;;;;;9.80;5.70;;;;;;;10.76;100.00;100661.03;5050618;28;20339;-62
2022/06/10 02:21:27;;;;;;;6.00;5.50;;;;;;;10.65;100.00;100653.81;5032479;28;20237;-60
2022/06/10 02:24:03;;;;;;;6.53;5.10;;;;;;;10.65;100.00;100655.53;5045949;28;20570;-60
2022/06/10 02:26:34;;;;;;;7.20;5.63;;;;;;;10.77;100.00;100661.88;5050239;28;20266;-62
2022/06/10 02:29:06;;;;;;;6.57;5.37;;;;;;;10.77;100.00;100662.69;5050142;28;20531;-61
2022/06/10 02:31:36;;;;;;;6.00;5.07;;;;;;;10.69;100.00;100661.38;5030924;28;20237;-60
2022/06/10 02:34:03;;;;;;;6.43;5.17;;;;;;;10.59;100.00;100661.81;5047183;28;20245;-61
2022/06/10 02:36:57;;;;;;;8.07;5.80;;;;;;;10.49;100.00;100669.13;5050019;28;20216;-61
2022/06/10 02:39:50;;;;;;;5.43;5.00;;;;;;;10.54;100.00;100680.94;5051812;28;20543;-61
2022/06/10 02:42:38;;;;;;;5.87;4.77;;;;;;;10.43;100.00;100681.41;5039948;28;20244;-61
2022/06/10 02:45:31;;;;;;;6.63;5.20;;;;;;;10.43;100.00;100686.56;5034559;28;20182;-61
2022/06/10 02:48:09;;;;;;;5.37;4.87;;;;;;;10.37;100.00;100686.81;5026828;28;20205;-61
2022/06/10 02:50:35;;;;;;;6.20;5.10;;;;;;;10.37;100.00;100694.53;5023568;28;20668;-61
2022/06/10 02:53:03;;;;;;;6.63;5.33;;;;;;;10.39;100.00;100698.72;5043166;28;20178;-61
2022/06/10 02:55:28;;;;;;;5.60;5.10;;;;;;;10.42;100.00;100695.16;5030164;28;20957;-61
2022/06/10 03:01:20;;;;;;;7.00;5.07;;;;;;;10.22;100.00;100696.00;5015358;28;20236;-61
2022/06/10 03:03:57;;;;;;;5.30;4.80;;;;;;;10.26;100.00;100700.97;5029865;28;20185;-61
2022/06/10 03:06:38;;;;;;;5.93;4.60;;;;;;;10.23;100.00;100701.09;5039609;28;20547;-61
2022/06/10 03:09:17;;;;;;;4.73;4.33;;;;;;;10.20;100.00;100702.97;5050809;28;20177;-60
2022/06/10 03:11:58;;;;;;;8.30;5.43;;;;;;;10.19;100.00;100709.84;5042847;28;20297;-60
2022/06/10 03:14:43;;;;;;;5.20;4.70;;;;;;;10.17;100.00;100703.91;5049977;28;20231;-60
2022/06/10 03:17:17;;;;;;;5.33;4.83;;;;;;;10.21;100.00;100715.75;5039038;28;20752;-61
2022/06/10 03:19:56;;;;;;;9.00;5.10;;;;;;;10.26;100.00;100715.56;5051143;28;20169;-61
2022/06/10 03:22:48;;;;;;;6.17;5.43;;;;;;;9.99;100.00;100720.97;5024002;28;20731;-60
2022/06/10 03:25:30;;;;;;;6.43;5.83;;;;;;;10.13;100.00;100715.25;5041104;28;20209;-61
2022/06/10 03:28:14;;;;;;;6.37;5.73;;;;;;;10.07;100.00;100723.22;5050976;28;20181;-60
2022/06/10 03:30:49;;;;;;;7.60;5.43;;;;;;;10.14;100.00;100727.19;5012528;28;20241;-61
2022/06/10 03:33:28;;;;;;;6.97;5.43;;;;;;;10.23;100.00;100719.09;5029188;28;20208;-61
2022/06/10 03:36:04;;;;;;;6.10;5.50;;;;;;;10.30;100.00;100725.63;5049733;28;20204;-61
2022/06/10 03:38:38;;;;;;;7.73;5.70;;;;;;;10.16;100.00;100723.66;5049938;28;20193;-60
2022/06/10 03:41:04;;;;;;;6.33;5.70;;;;;;;10.08;100.00;100730.03;5036353;28;20785;-61
2022/06/10 03:43:39;;;;;;;7.40;5.90;;;;;;;10.06;100.00;100742.09;5041220;28;20202;-62
2022/06/10 03:46:12;;;;;;;7.77;6.67;;;;;;;10.11;100.00;100737.59;5033122;28;20179;-60
2022/06/10 03:48:40;;;;;;;7.90;7.10;;;;;;;10.01;100.00;100747.47;5035048;28;20634;-60
2022/06/10 03:51:08;;;;;;;7.30;6.03;;;;;;;10.18;100.00;100741.59;5026628;28;20233;-60
2022/06/10 03:53:34;;;;;;;7.70;6.93;;;;;;;10.41;100.00;100738.06;5033474;28;20174;-61
2022/06/10 03:55:59;;;;;;;7.20;6.60;;;;;;;10.58;100.00;100751.91;5034720;28;20244;-61
2022/06/10 03:58:24;;;;;;;8.70;6.87;;;;;;;10.63;100.00;100747.41;5034660;28;20625;-61
2022/06/10 04:00:50;;;;;;;8.10;7.30;;;;;;;10.56;100.00;100748.59;5030834;28;20288;-60
2022/06/10 04:03:16;;;;;;;10.30;6.47;;;;;;;10.69;100.00;100751.44;5046418;28;20267;-59
2022/06/10 04:05:41;;;;;;;7.43;6.73;;;;;;;10.79;100.00;100756.13;5053201;28;20826;-60
2022/06/10 04:08:07;;;;;;;7.40;6.40;;;;;;;10.91;100.00;100756.47;5054275;28;20254;-60
2022/06/10 04:10:33;;;;;;;7.93;6.57;;;;;;;10.95;100.00;100761.41;5048645;28;20607;-60
2022/06/10 04:12:59;;;;;;;7.60;5.63;;;;;;;11.06;100.00;100758.31;5053126;28;20176;-60
2022/06/10 04:15:26;;;;;;;6.73;5.80;;;;;;;11.19;100.00;100752.59;5053008;28;20200;-63
2022/06/10 04:17:52;;;;;;;9.57;6.60;;;;;;;11.23;100.00;100754.16;5053990;28;20232;-60
2022/06/10 04:20:22;;;;;;;6.93;6.10;;;;;;;11.34;100.00;100753.63;5044046;28;20282;-60
2022/06/10 04:22:47;;;;;;;6.80;6.03;;;;;;;11.45;100.00;100756.56;5053220;28;20165;-61
2022/06/10 04:25:13;;;;;;;7.83;6.53;;;;;;;11.49;100.00;100758.06;5054169;28;20247;-61
2022/06/10 04:27:39;;;;;;;6.30;5.63;;;;;;;11.62;100.00;100751.41;5053532;28;20193;-61
2022/06/10 04:30:06;;;;;;;6.30;5.80;;;;;;;11.53;100.00;100751.03;5042393;28;20174;-64
2022/06/10 04:32:32;;;;;;;7.43;5.37;;;;;;;11.57;100.00;100747.38;5036843;28;20626;-62
2022/06/10 04:34:57;;;;;;;8.53;5.13;;;;;;;11.55;100.00;100760.34;5052889;28;20177;-60
2022/06/10 04:37:23;;;;;;;8.23;5.43;;;;;;;11.82;100.00;100762.50;5052100;28;20184;-60
2022/06/10 04:39:49;;;;;;;5.83;5.30;;;;;;;12.02;100.00;100769.28;5052465;28;20274;-62
2022/06/10 04:42:14;;;;;;;6.90;5.77;;;;;;;12.18;100.00;100774.50;5027236;28;20254;-60
2022/06/10 04:44:39;;;;;;;6.40;5.47;;;;;;;12.26;100.00;100774.09;5038445;28;20174;-61
2022/06/10 04:47:07;;;;;;;7.63;5.13;;;;;;;12.27;100.00;100773.19;5033012;28;20236;-61
2022/06/10 04:49:32;;;;;;;6.13;5.37;;;;;;;12.36;100.00;100777.06;5033759;28;20178;-61
2022/06/10 04:51:57;;;;;;;6.20;4.83;;;;;;;12.47;100.00;100784.25;5037982;28;20229;-60
2022/06/10 04:54:23;;;;;;;5.03;4.50;;;;;;;12.47;100.00;100784.25;5034411;28;20201;-61
2022/06/10 04:56:48;;;;;;;7.80;5.37;;;;;;;12.50;100.00;100790.09;5031837;28;20174;-59
2022/06/10 04:59:14;;;;;;;5.93;4.50;;;;;;;12.54;100.00;100788.16;5032212;28;20190;-60
2022/06/10 05:01:39;;;;;;;4.83;4.30;;;;;;;12.74;100.00;100781.97;5035670;28;20224;-61
2022/06/10 05:04:04;;;;;;;7.33;4.63;;;;;;;12.95;100.00;100792.91;5049010;28;20174;-61
2022/06/10 05:06:30;;;;;;;7.10;4.90;;;;;;;13.00;100.00;100793.50;5051751;28;20238;-61
2022/06/10 05:08:56;;;;;;;11.20;4.43;;;;;;;13.08;100.00;100791.34;5052160;28;20529;-60
2022/06/10 05:11:22;;;;;;;5.33;4.77;;;;;;;13.20;100.00;100784.66;5044865;28;20707;-60
2022/06/10 05:13:47;;;;;;;4.93;4.27;;;;;;;13.39;100.00;100792.25;5051432;28;20173;-61
2022/06/10 05:16:13;;;;;;;4.40;4.00;;;;;;;13.65;100.00;100789.97;5052876;28;20255;-61
2022/06/10 05:18:39;;;;;;;6.90;5.00;;;;;;;13.83;100.00;100797.59;5051956;28;20233;-60
2022/06/10 05:21:04;;;;;;;6.03;4.50;;;;;;;13.95;100.00;100785.72;5036171;28;20236;-61
2022/06/10 05:23:30;;;;;;;5.17;3.73;;;;;;;14.02;100.00;100781.88;5052255;28;20625;-61
2022/06/10 05:25:55;;;;;;;4.77;4.37;;;;;;;14.17;100.00;100790.47;5052858;28;20558;-62
2022/06/10 05:28:21;;;;;;;6.40;3.90;;;;;;;14.07;100.00;100779.03;5050889;28;20600;-60
2022/06/10 05:30:47;;;;;;;5.50;4.67;;;;;;;14.20;100.00;100790.28;5038017;28;20233;-59
2022/06/10 05:33:13;;;;;;;4.77;3.87;;;;;;;14.58;100.00;100794.13;5041025;28;20184;-60
2022/06/10 05:35:40;;;;;;;11.10;3.93;;;;;;;14.75;100.00;100791.38;5051202;28;20545;-60
2022/06/10 05:38:06;;;;;;;4.90;3.70;;;;;;;14.98;100.00;100789.97;5052659;28;20189;-59
2022/06/10 05:40:33;;;;;;;4.33;3.80;;;;;;;15.36;100.00;100790.25;5042062;28;20340;-59
2022/06/10 05:42:59;;;;;;;4.73;3.57;;;;;;;15.27;99.50;100781.25;5039155;28;20544;-62
2022/06/10 05:45:25;;;;;;;4.73;3.60;;;;;;;15.39;97.44;100785.66;5031192;28;20544;-62
2022/06/10 05:47:55;;;;;;;3.53;3.23;;;;;;;15.51;96.01;100783.25;5030946;28;20204;-60
2022/06/10 05:50:25;;;;;;;5.20;3.00;;;;;;;15.51;93.51;100788.44;5023774;28;20622;-59
2022/06/10 05:52:51;;;;;;;5.53;3.27;;;;;;;15.55;93.13;100793.28;5032921;28;20178;-61
2022/06/10 05:55:18;;;;;;;4.67;2.83;;;;;;;16.02;90.96;100795.53;5066047;28;20542;-59
2022/06/10 05:57:43;;;;;;;5.77;2.80;;;;;;;16.21;90.38;100797.69;5051073;28;20519;-59
2022/06/10 06:00:16;;;;;;;4.57;2.70;;;;;;;16.30;84.30;100802.28;5040585;28;20277;-60
2022/06/10 06:02:42;;;;;;;3.13;2.70;;;;;;;16.55;83.33;100803.22;5038140;28;20188;-60
2022/06/10 06:05:09;;;;;;;2.10;1.93;;;;;;;17.14;80.84;100802.63;5071407;28;20188;-60
2022/06/10 06:07:35;;;;;;;3.17;2.63;;;;;;;17.87;77.90;100805.16;5069279;28;20675;-60
2022/06/10 06:10:01;;;;;;;4.20;1.97;;;;;;;18.44;72.17;100808.72;5063644;28;20181;-60
2022/06/10 06:12:27;;;;;;;4.10;2.60;;;;;;;18.67;72.44;100817.38;5019158;28;20723;-60
2022/06/10 06:14:52;;;;;;;4.70;1.83;;;;;;;19.68;68.60;100810.31;5054671;28;20178;-60
2022/06/10 06:17:19;;;;;;;3.43;2.13;;;;;;;20.76;61.20;100804.88;5050635;28;20231;-59
2022/06/10 06:19:44;;;;;;;3.57;1.70;;;;;;;21.25;58.06;100811.03;5051269;28;20191;-60
2022/06/10 06:22:10;;;;;;;4.17;1.70;;;;;;;22.02;54.66;100813.78;5020431;28;20225;-60
2022/06/10 06:24:37;;;;;;;4.20;1.97;;;;;;;20.46;56.96;100823.03;5061226;28;20239;-62
2022/06/10 06:27:03;;;;;;;2.23;1.40;;;;;;;20.76;56.25;100817.94;5050910;28;20193;-61
2022/06/10 06:29:29;;;;;;;3.27;1.57;;;;;;;21.09;56.72;100822.03;5048487;28;20181;-60
2022/06/10 06:31:54;;;;;;;2.00;1.70;;;;;;;22.60;52.40;100827.72;5039574;28;20595;-62
2022/06/10 06:34:22;;;;;;;2.67;1.53;;;;;;;21.60;56.48;100824.59;5051103;28;20177;-60
2022/06/10 06:36:49;;;;;;;2.63;1.70;;;;;;;22.93;51.81;100830.72;5049461;28;20180;-61
2022/06/10 06:39:17;;;;;;;3.20;1.67;;;;;;;23.16;49.89;100833.78;5049380;28;20672;-62
2022/06/10 06:41:43;;;;;;;2.60;1.70;;;;;;;23.19;48.86;100830.84;5030592;28;20276;-60
2022/06/10 06:44:09;;;;;;;6.30;1.73;;;;;;;24.39;44.51;100827.84;5046267;28;20181;-61
2022/06/10 06:46:37;;;;;;;6.43;1.80;;;;;;;25.45;42.23;100828.38;5046777;28;20207;-64
2022/06/10 06:49:07;;;;;;;2.20;1.25;;;;;;;25.10;41.74;100822.38;5050540;28;20185;-63
2022/06/10 06:51:33;;;;;;;3.63;1.77;;;;;;;25.23;42.06;100827.16;5053016;28;20734;-62
2022/06/10 06:53:59;;;;;;;1.70;1.30;;;;;;;24.94;42.31;100826.63;5049982;28;20220;-62
2022/06/10 06:56:25;;;;;;;5.20;1.58;;;;;;;24.50;42.94;100830.19;5050275;28;20238;-61
2022/06/10 06:58:51;;;;;;;5.95;1.42;;;;;;;24.96;40.99;100831.72;5051536;28;20227;-61
2022/06/10 07:01:17;;;;;;;5.28;1.70;;;;;;;24.96;41.84;100829.09;5024655;28;20230;-61
2022/06/10 07:03:42;;;;;;;2.30;1.42;;;;;;;25.70;40.36;100825.72;5039408;28;20212;-63
2022/06/10 07:06:07;;;;;;;5.55;1.83;;;;;;;27.42;38.13;100838.50;5050667;28;20249;-63
2022/06/10 07:08:32;;;;;;;4.78;1.27;;;;;;;27.74;35.93;100840.06;5050949;28;20213;-63
2022/06/10 07:10:59;;;;;;;3.92;1.60;;;;;;;27.09;36.50;100844.81;5035430;28;20308;-62
2022/06/10 07:13:25;;;;;;;3.97;1.55;;;;;;;27.16;36.58;100848.38;5035201;28;20216;-62
2022/06/10 07:15:51;;;;;;;2.45;1.27;;;;;;;27.16;36.76;100848.38;5031999;28;20229;-61
2022/06/10 07:18:17;;;;;;;2.95;1.42;;;;;;;27.12;37.24;100843.63;5019949;28;20214;-62
2022/06/10 07:20:44;;;;;;;3.15;1.58;;;;;;;27.33;37.03;100843.00;5026136;28;20228;-61
2022/06/10 07:23:09;;;;;;;3.67;1.73;;;;;;;28.45;35.33;100844.16;5040882;28;20248;-62
2022/06/10 07:25:36;;;;;;;5.15;1.40;;;;;;;28.46;34.62;100846.59;5039069;28;20559;-62
2022/06/10 07:28:01;;;;;;;3.78;1.60;;;;;;;26.98;35.60;100848.66;5049226;28;20201;-61
2022/06/10 07:30:29;;;;;;;3.78;1.40;;;;;;;27.76;34.99;100850.44;5022991;28;20607;-62
2022/06/10 07:32:54;;;;;;;3.42;1.40;;;;;;;27.77;34.98;100847.59;5053133;28;20618;-62
2022/06/10 07:35:21;;;;;;;1.95;1.15;;;;;;;27.97;35.50;100852.38;5029973;28;20649;-62
2022/06/10 07:37:47;;;;;;;2.80;1.45;;;;;;;28.50;34.10;100844.41;5030402;28;20217;-61
2022/06/10 07:43:06;;;;;;;4.22;1.90;;;;;;;29.66;32.43;100848.94;5036624;28;20192;-62
2022/06/10 07:45:31;;;;;;;2.88;1.38;;;;;;;29.97;30.90;100837.16;5050174;28;20185;-60
2022/06/10 07:47:57;;;;;;;4.05;1.38;;;;;;;28.17;33.71;100829.75;5048216;28;20201;-61
2022/06/10 07:50:23;;;;;;;3.13;1.15;;;;;;;28.79;32.09;100827.69;5040450;28;20237;-62
2022/06/10 07:52:49;;;;;;;2.63;1.05;;;;;;;29.37;29.91;100834.81;5050039;28;20185;-61
2022/06/10 07:55:15;;;;;;;2.42;1.38;;;;;;;27.96;31.98;100826.94;5049459;28;20193;-62
2022/06/10 07:57:40;;;;;;;1.50;1.10;;;;;;;29.29;32.65;100827.81;5068018;28;20187;-62
2022/06/10 08:00:06;;;;;;;3.20;1.20;;;;;;;29.74;31.91;100826.75;5053571;28;20519;-61
2022/06/10 08:02:31;;;;;;;1.98;1.10;;;;;;;29.73;28.93;100827.78;5033863;28;20668;-62
2022/06/10 08:04:57;;;;;;;2.80;1.48;;;;;;;31.16;28.90;100827.25;5049292;28;20185;-61
2022/06/10 08:07:22;;;;;;;1.33;0.90;;;;;;;30.24;28.27;100827.53;5050431;28;20208;-60
2022/06/10 08:09:48;;;;;;;2.42;0.80;;;;;;;30.07;29.21;100827.00;5050301;28;20641;-62
2022/06/10 08:12:13;;;;;;;4.25;0.95;;;;;;;30.67;28.93;100825.69;5035887;28;20713;-61
2022/06/10 08:14:38;;;;;;;4.22;1.02;;;;;;;29.24;29.14;100832.03;5045533;28;20170;-61
2022/06/10 08:17:06;;;;;;;6.22;0.88;;;;;;;28.16;29.83;100827.28;5032084;28;20958;-62
2022/06/10 08:19:32;;;;;;;1.33;0.85;;;;;;;30.17;27.73;100828.50;5050274;28;20256;-61
2022/06/10 08:24:42;;;;;;;1.05;0.65;;;;;;;30.66;24.92;100827.50;5050404;28;20714;-61
2022/06/10 08:27:07;;;;;;;2.10;0.90;;;;;;;32.49;24.55;100833.44;5050637;28;20201;-62
2022/06/10 08:29:33;;;;;;;2.13;0.80;;;;;;;32.13;23.41;100833.97;5054023;28;20661;-61
2022/06/10 08:31:58;;;;;;;3.40;1.00;;;;;;;30.84;26.18;100834.13;5042964;28;20745;-62
2022/06/10 08:34:24;;;;;;;1.70;0.77;;;;;;;27.14;31.23;100831.91;5054263;28;20174;-63
2022/06/10 08:36:49;;;;;;;3.05;1.08;;;;;;;29.14;28.51;100825.22;5053239;28;20846;-62
2022/06/10 08:39:14;;;;;;;2.53;1.10;;;;;;;30.34;27.76;100826.31;5051027;28;20201;-63
2022/06/10 08:42:02;;;;;;;2.38;1.30;;;;;;;29.79;28.91;100829.66;5042539;28;20331;-63
2022/06/10 08:44:39;;;;;;;2.90;1.30;;;;;;;31.09;27.52;100837.06;5053616;28;20604;-62
2022/06/10 08:47:36;;;;;;;2.92;1.05;;;;;;;31.39;26.23;100829.53;5050993;28;20378;-64
2022/06/10 08:50:23;;;;;;;4.10;1.30;;;;;;;30.75;26.21;100836.13;5034892;28;20182;-63
2022/06/10 08:53:01;;;;;;;1.55;0.73;;;;;;;30.53;27.70;100825.63;5038675;28;20227;-60
2022/06/10 08:55:37;;;;;;;3.28;1.33;;;;;;;30.29;28.21;100826.09;5049889;28;20185;-62
2022/06/10 08:58:14;;;;;;;2.28;1.00;;;;;;;31.15;26.37;100830.94;5053177;28;20224;-62
2022/06/10 09:00:41;;;;;;;2.80;1.00;;;;;;;31.26;28.53;100834.00;5060036;28;20263;-63
2022/06/10 09:03:29;;;;;;;6.05;1.27;;;;;;;31.61;27.42;100831.97;5055145;28;20183;-64
2022/06/10 09:05:59;;;;;;;5.22;1.50;;;;;;;30.26;28.29;100829.97;5073359;28;20267;-62
2022/06/10 09:08:31;;;;;;;3.97;1.23;;;;;;;29.65;29.73;100826.09;5056962;28;20217;-63
2022/06/10 09:11:09;;;;;;;3.78;1.38;;;;;;;31.50;27.71;100838.72;5038796;28;20332;-62
2022/06/10 09:13:39;;;;;;;2.63;1.33;;;;;;;31.27;28.72;100838.28;5030394;28;20538;-63
2022/06/10 09:16:35;;;;;;;1.52;0.90;;;;;;;30.87;28.51;100841.66;5051498;28;20231;-62
2022/06/10 09:19:10;;;;;;;9.70;2.22;;;;;;;32.83;26.60;100833.31;5052076;28;20697;-64
2022/06/10 09:22:01;;;;;;;3.85;1.35;;;;;;;32.45;25.81;100834.06;5054969;28;20307;-62
2022/06/10 09:24:54;;;;;;;2.97;1.08;;;;;;;32.47;26.69;100838.16;5052098;28;20193;-63
2022/06/10 09:27:30;;;;;;;5.07;1.60;;;;;;;32.86;25.21;100837.38;5028924;28;20209;-62
2022/06/10 09:29:57;;;;;;;3.28;1.23;;;;;;;31.09;27.63;100844.22;5053222;28;20738;-62
2022/06/10 09:32:51;;;;;;;3.58;1.52;;;;;;;29.45;30.02;100834.69;5033269;28;20261;-63
2022/06/10 09:35:42;;;;;;;1.85;1.13;;;;;;;30.79;28.53;100828.56;5031705;28;20198;-62
2022/06/10 09:38:37;;;;;;;3.55;1.33;;;;;;;30.55;28.86;100822.78;5014807;28;20197;-62
2022/06/10 09:41:28;;;;;;;3.10;1.42;;;;;;;30.52;27.76;100823.19;5057745;28;20244;-62
2022/06/10 09:44:25;;;;;;;2.42;1.40;;;;;;;33.43;25.46;100827.59;5058319;28;20192;-62
2022/06/10 09:47:11;;;;;;;4.38;1.40;;;;;;;32.88;25.00;100824.69;5043809;28;20337;-62
2022/06/10 09:49:51;;;;;;;4.15;1.35;;;;;;;34.16;24.43;100825.25;5039437;28;20191;-62
2022/06/10 09:52:42;;;;;;;1.42;0.90;;;;;;;34.29;24.41;100826.13;5055605;28;20228;-61
2022/06/10 09:55:26;;;;;;;3.92;1.65;;;;;;;33.25;25.07;100828.31;5031064;28;20247;-63
2022/06/10 09:57:58;;;;;;;5.05;1.40;;;;;;;29.55;28.52;100820.31;5038717;28;20640;-61
2022/06/10 10:00:53;;;;;;;4.15;1.23;;;;;;;28.96;31.29;100809.75;5041511;28;20317;-62
2022/06/10 10:03:37;;;;;;;4.40;1.75;;;;;;;29.30;29.64;100804.81;5051294;28;20656;-62
2022/06/10 10:06:25;;;;;;;3.53;1.30;;;;;;;29.71;28.68;100801.47;5052060;28;20192;-63
2022/06/10 10:09:09;;;;;;;5.53;1.20;;;;;;;32.82;26.51;100805.84;5050896;28;20331;-64
2022/06/10 10:11:58;;;;;;;2.55;1.20;;;;;;;30.83;26.21;100806.72;5029803;28;20244;-63
2022/06/10 10:14:53;;;;;;;4.07;1.73;;;;;;;29.81;27.05;100803.78;5050028;28;20181;-61
2022/06/10 10:17:34;;;;;;;5.57;1.48;;;;;;;30.77;26.77;100802.22;5033308;28;20208;-63
2022/06/10 10:20:27;;;;;;;6.03;1.45;;;;;;;31.81;27.02;100805.38;5050881;28;20193;-62
2022/06/10 10:23:09;;;;;;;3.03;0.98;;;;;;;33.39;23.66;100797.06;5024074;28;20228;-62
2022/06/10 10:25:38;;;;;;;3.63;1.30;;;;;;;34.27;24.09;100802.31;5051863;28;20735;-62
2022/06/10 10:28:15;;;;;;;3.70;1.55;;;;;;;35.96;20.46;100802.22;5051154;28;20276;-63
2022/06/10 10:30:45;;;;;;;3.17;1.30;;;;;;;36.28;20.72;100807.13;5038307;28;20361;-63
2022/06/10 10:33:14;;;;;;;2.90;1.30;;;;;;;36.39;19.87;100804.66;5050884;28;20189;-62
2022/06/10 10:35:41;;;;;;;2.90;1.45;;;;;;;37.48;19.07;100805.44;5049568;28;20631;-62
2022/06/10 10:38:11;;;;;;;4.43;1.40;;;;;;;37.85;19.10;100796.81;5049320;28;20177;-63
2022/06/10 10:40:44;;;;;;;1.73;1.10;;;;;;;34.23;22.39;100793.13;5053211;28;20232;-63
2022/06/10 10:43:16;;;;;;;3.10;1.10;;;;;;;34.18;23.71;100782.31;5057490;28;20196;-64
2022/06/10 10:46:02;;;;;;;4.00;1.40;;;;;;;31.92;25.61;100782.63;5051609;28;20185;-61
2022/06/10 10:48:44;;;;;;;3.15;1.48;;;;;;;28.63;28.47;100781.06;5050098;28;20215;-63
2022/06/10 10:51:23;;;;;;;5.68;1.92;;;;;;;26.94;31.47;100778.75;5043002;28;20683;-63
2022/06/10 10:53:56;;;;;;;4.65;1.60;;;;;;;25.86;34.45;100764.28;5041713;28;20184;-63
2022/06/10 10:56:31;;;;;;;3.58;1.40;;;;;;;26.00;36.08;100755.69;5029800;28;20620;-62
2022/06/10 10:58:57;;;;;;;2.47;1.15;;;;;;;26.63;35.78;100763.72;5030278;28;20177;-62
2022/06/10 11:01:44;;;;;;;3.13;1.25;;;;;;;26.87;32.98;100762.75;4991312;28;20245;-62
2022/06/10 11:04:27;;;;;;;5.28;1.27;;;;;;;27.06;33.70;100764.13;5028831;28;20907;-62
2022/06/10 11:07:15;;;;;;;4.82;1.42;;;;;;;26.86;34.87;100769.03;5040001;28;20201;-62
2022/06/10 11:09:51;;;;;;;4.15;1.60;;;;;;;27.33;33.10;100766.41;5050531;28;20177;-64
2022/06/10 11:12:20;;;;;;;4.90;1.63;;;;;;;26.95;33.30;100766.34;5039330;28;20282;-63
2022/06/10 11:14:48;;;;;;;3.97;1.55;;;;;;;26.87;35.06;100764.59;5049729;28;20644;-63
2022/06/10 11:17:18;;;;;;;2.35;1.38;;;;;;;27.18;33.87;100764.53;5024352;28;20308;-61
2022/06/10 11:19:55;;;;;;;3.70;1.25;;;;;;;27.00;32.73;100769.28;5049742;28;20193;-62
2022/06/10 11:22:38;;;;;;;5.60;1.40;;;;;;;25.77;34.72;100751.13;5039672;28;20239;-61
2022/06/10 11:25:03;;;;;;;1.38;0.75;;;;;;;26.01;36.95;100759.16;5044627;28;20197;-62
2022/06/10 11:27:40;;;;;;;3.58;1.23;;;;;;;26.45;34.06;100761.31;5030921;28;20202;-61
2022/06/10 11:30:20;;;;;;;4.47;1.58;;;;;;;26.58;34.47;100756.31;5013449;28;20216;-61
2022/06/10 11:32:48;;;;;;;5.20;1.55;;;;;;;26.05;33.31;100745.47;5025446;28;20232;-62
2022/06/10 11:35:31;;;;;;;5.60;1.42;;;;;;;24.41;36.24;100740.94;5050801;28;20640;-62
2022/06/10 11:38:22;;;;;;;3.75;1.88;;;;;;;24.24;37.99;100740.06;5031833;28;20632;-60
2022/06/10 11:40:48;;;;;;;3.63;1.70;;;;;;;24.41;35.53;100736.50;5035852;28;20284;-62
2022/06/10 11:43:22;;;;;;;6.20;1.80;;;;;;;24.28;37.49;100736.94;5032186;28;20186;-62
2022/06/10 11:45:54;;;;;;;5.10;1.30;;;;;;;24.72;37.68;100738.59;5049039;28;20226;-62
2022/06/10 11:48:34;;;;;;;2.23;1.27;;;;;;;24.95;36.66;100735.34;5030635;28;20202;-62
2022/06/10 11:51:31;;;;;;;4.93;1.77;;;;;;;25.08;36.84;100722.53;5042059;28;20236;-62
2022/06/10 11:53:59;;;;;;;7.33;1.53;;;;;;;25.21;36.36;100724.66;5056009;28;20193;-63
2022/06/10 12:00:23;;;;;;;3.47;1.13;;;;;;;25.99;34.93;100716.34;5050824;28;20180;-61